createdAt,value
2022-11-15T00:00:59.502Z,0.00
2022-11-15T00:01:59.591Z,0.00
2022-11-15T00:02:59.480Z,0.00
2022-11-15T00:03:59.487Z,0.00
2022-11-15T00:04:59.459Z,0.00
2022-11-15T00:05:59.470Z,0.00
2022-11-15T00:06:59.532Z,0.00
2022-11-15T00:07:59.483Z,0.00
2022-11-15T00:08:59.423Z,0.00
2022-11-15T00:09:59.459Z,0.00
2022-11-15T00:10:59.401Z,0.00
2022-11-15T00:11:59.454Z,0.00
2022-11-15T00:12:59.380Z,0.00
2022-11-15T00:13:59.370Z,0.00
2022-11-15T00:14:59.352Z,0.00
2022-11-15T00:15:59.360Z,0.00
2022-11-15T00:16:59.388Z,0.00
2022-11-15T00:17:59.324Z,0.00
2022-11-15T00:18:59.307Z,0.00
2022-11-15T00:19:59.330Z,0.00
2022-11-15T00:20:59.307Z,0.00
2022-11-15T00:21:59.290Z,0.00
2022-11-15T00:22:59.269Z,0.00
2022-11-15T00:23:59.258Z,0.00
2022-11-15T00:24:59.238Z,0.00
2022-11-15T00:25:59.300Z,0.00
2022-11-15T00:26:59.235Z,0.00
2022-11-15T00:27:59.228Z,0.00
2022-11-15T00:28:59.209Z,0.00
2022-11-15T00:29:59.209Z,0.00
2022-11-15T00:30:59.201Z,0.00
2022-11-15T00:31:59.190Z,0.00
2022-11-15T00:32:59.174Z,0.00
2022-11-15T00:33:59.208Z,0.00
2022-11-15T00:34:59.138Z,0.00
2022-11-15T00:35:59.144Z,0.00
2022-11-15T00:36:59.120Z,0.00
2022-11-15T00:37:59.113Z,0.00
2022-11-15T00:38:59.096Z,0.00
2022-11-15T00:39:59.088Z,0.00
2022-11-15T00:40:59.069Z,0.00
2022-11-15T00:41:59.080Z,0.00
2022-11-15T00:42:59.065Z,0.00
2022-11-15T00:43:59.045Z,0.00
2022-11-15T00:44:59.044Z,0.00
2022-11-15T00:45:59.063Z,0.00
2022-11-15T00:46:59.106Z,0.00
2022-11-15T00:47:59.000Z,0.00
2022-11-15T00:48:58.989Z,0.00
2022-11-15T00:49:58.979Z,0.00
2022-11-15T00:50:58.976Z,0.00
2022-11-15T00:51:58.967Z,0.00
2022-11-15T00:52:58.943Z,0.00
2022-11-15T00:53:58.976Z,0.00
2022-11-15T00:54:58.956Z,0.00
2022-11-15T00:55:58.918Z,0.00
2022-11-15T00:56:58.922Z,0.00
2022-11-15T00:57:58.910Z,0.00
2022-11-15T00:58:58.879Z,0.00
2022-11-15T00:59:58.870Z,0.00
2022-11-15T01:00:58.927Z,0.00
2022-11-15T01:01:58.851Z,0.00
2022-11-15T01:02:58.846Z,0.00
2022-11-15T01:04:01.465Z,0.00
2022-11-15T01:04:58.811Z,0.00
2022-11-15T01:05:58.839Z,0.00
2022-11-15T01:06:58.853Z,0.00
2022-11-15T01:07:58.824Z,0.00
2022-11-15T01:08:58.784Z,0.00
2022-11-15T01:09:58.778Z,0.00
2022-11-15T01:10:58.766Z,0.00
2022-11-15T01:11:58.739Z,0.00
2022-11-15T01:12:58.729Z,0.00
2022-11-15T01:13:58.756Z,0.00
2022-11-15T01:14:58.753Z,0.00
2022-11-15T01:15:58.697Z,0.00
2022-11-15T01:16:58.676Z,0.00
2022-11-15T01:17:58.681Z,0.00
2022-11-15T01:18:58.751Z,0.00
2022-11-15T01:19:58.659Z,0.00
2022-11-15T01:20:58.670Z,0.00
2022-11-15T01:21:58.629Z,0.00
2022-11-15T01:22:58.666Z,0.00
2022-11-15T01:23:58.607Z,0.00
2022-11-15T01:24:58.587Z,0.00
2022-11-15T01:25:58.598Z,0.00
2022-11-15T01:26:58.578Z,0.00
2022-11-15T01:27:58.569Z,0.00
2022-11-15T01:28:58.558Z,0.00
2022-11-15T01:29:58.555Z,0.00
2022-11-15T01:30:58.570Z,0.00
2022-11-15T01:31:58.560Z,0.00
2022-11-15T01:32:58.509Z,0.00
2022-11-15T01:33:58.570Z,0.00
2022-11-15T01:34:58.485Z,0.00
2022-11-15T01:35:58.506Z,0.00
2022-11-15T01:36:58.501Z,0.00
2022-11-15T01:37:58.516Z,0.00
2022-11-15T01:38:58.498Z,0.00
2022-11-15T01:39:58.435Z,0.00
2022-11-15T01:40:58.425Z,0.00
2022-11-15T01:41:58.422Z,0.00
2022-11-15T01:42:58.469Z,0.00
2022-11-15T01:43:58.398Z,0.00
2022-11-15T01:44:58.380Z,0.00
2022-11-15T01:45:58.387Z,0.00
2022-11-15T01:46:58.359Z,0.00
2022-11-15T01:47:58.353Z,0.00
2022-11-15T01:48:58.360Z,0.00
2022-11-15T01:49:58.357Z,0.00
2022-11-15T01:50:58.314Z,0.00
2022-11-15T01:51:58.341Z,0.00
2022-11-15T01:52:58.296Z,0.00
2022-11-15T01:53:58.283Z,0.00
2022-11-15T01:54:58.373Z,0.00
2022-11-15T01:55:58.296Z,0.00
2022-11-15T01:56:58.244Z,0.00
2022-11-15T01:57:58.278Z,0.00
2022-11-15T01:58:58.234Z,0.00
2022-11-15T01:59:58.220Z,0.00
2022-11-15T02:00:58.344Z,0.00
2022-11-15T02:01:58.193Z,0.00
2022-11-15T02:02:58.184Z,0.00
2022-11-15T02:03:58.206Z,0.00
2022-11-15T02:04:58.237Z,0.00
2022-11-15T02:05:58.164Z,0.00
2022-11-15T02:06:58.189Z,0.00
2022-11-15T02:07:58.143Z,0.00
2022-11-15T02:08:58.133Z,0.00
2022-11-15T02:09:58.112Z,0.00
2022-11-15T02:10:59.769Z,0.00
2022-11-15T02:11:58.105Z,0.00
2022-11-15T02:12:58.190Z,0.00
2022-11-15T02:13:58.064Z,0.00
2022-11-15T02:14:58.053Z,0.00
2022-11-15T02:16:02.824Z,0.00
2022-11-15T02:16:59.031Z,0.00
2022-11-15T02:17:58.026Z,0.00
2022-11-15T02:18:58.024Z,0.00
2022-11-15T02:19:58.001Z,0.00
2022-11-15T02:20:58.012Z,0.00
2022-11-15T02:21:57.992Z,0.00
2022-11-15T02:22:57.993Z,0.00
2022-11-15T02:23:57.990Z,0.00
2022-11-15T02:24:57.960Z,0.00
2022-11-15T02:25:57.945Z,0.00
2022-11-15T02:26:57.925Z,0.00
2022-11-15T02:27:57.915Z,0.00
2022-11-15T02:28:57.900Z,0.00
2022-11-15T02:29:57.993Z,0.00
2022-11-15T02:30:57.911Z,0.00
2022-11-15T02:31:57.880Z,0.00
2022-11-15T02:32:57.887Z,0.00
2022-11-15T02:33:57.860Z,0.00
2022-11-15T02:34:57.831Z,0.00
2022-11-15T02:35:57.847Z,0.00
2022-11-15T02:36:57.810Z,0.00
2022-11-15T02:37:57.876Z,0.00
2022-11-15T02:38:57.831Z,0.00
2022-11-15T02:39:57.802Z,0.00
2022-11-15T02:40:57.789Z,0.00
2022-11-15T02:41:57.772Z,0.00
2022-11-15T02:42:57.836Z,0.00
2022-11-15T02:43:57.750Z,0.00
2022-11-15T02:44:57.748Z,0.00
2022-11-15T02:45:57.767Z,0.00
2022-11-15T02:46:57.723Z,0.00
2022-11-15T02:47:57.707Z,0.00
2022-11-15T02:48:57.701Z,0.00
2022-11-15T02:49:57.707Z,0.00
2022-11-15T02:50:57.658Z,0.00
2022-11-15T02:51:57.658Z,0.00
2022-11-15T02:52:57.875Z,0.00
2022-11-15T02:53:57.630Z,0.00
2022-11-15T02:54:57.621Z,0.00
2022-11-15T02:55:57.629Z,0.00
2022-11-15T02:56:57.691Z,0.00
2022-11-15T02:57:57.590Z,0.00
2022-11-15T02:58:57.585Z,0.00
2022-11-15T02:59:57.637Z,0.00
2022-11-15T03:00:57.611Z,0.00
2022-11-15T03:01:57.538Z,0.00
2022-11-15T03:02:57.553Z,0.00
2022-11-15T03:03:57.518Z,0.00
2022-11-15T03:04:57.604Z,0.00
2022-11-15T03:05:57.507Z,0.00
2022-11-15T03:06:57.575Z,0.00
2022-11-15T03:08:02.123Z,0.00
2022-11-15T03:08:58.500Z,0.00
2022-11-15T03:09:57.463Z,0.00
2022-11-15T03:10:57.462Z,0.00
2022-11-15T03:11:57.437Z,0.00
2022-11-15T03:12:57.424Z,0.00
2022-11-15T03:13:57.434Z,0.00
2022-11-15T03:14:57.400Z,0.00
2022-11-15T03:15:57.411Z,0.00
2022-11-15T03:16:57.390Z,0.00
2022-11-15T03:17:57.415Z,0.00
2022-11-15T03:18:57.424Z,0.00
2022-11-15T03:19:57.397Z,0.00
2022-11-15T03:20:57.371Z,0.00
2022-11-15T03:21:57.377Z,0.00
2022-11-15T03:22:57.316Z,0.00
2022-11-15T03:23:57.317Z,0.00
2022-11-15T03:24:57.301Z,0.00
2022-11-15T03:25:57.392Z,0.00
2022-11-15T03:26:57.275Z,0.00
2022-11-15T03:27:57.267Z,0.00
2022-11-15T03:28:57.256Z,0.00
2022-11-15T03:29:57.256Z,0.00
2022-11-15T03:30:57.247Z,0.00
2022-11-15T03:31:57.225Z,0.00
2022-11-15T03:32:57.216Z,0.00
2022-11-15T03:33:57.204Z,0.00
2022-11-15T03:34:57.232Z,0.00
2022-11-15T03:35:57.196Z,0.00
2022-11-15T03:36:57.225Z,0.00
2022-11-15T03:37:57.237Z,0.00
2022-11-15T03:38:57.165Z,0.00
2022-11-15T03:39:57.149Z,0.00
2022-11-15T03:40:57.203Z,0.00
2022-11-15T03:41:57.123Z,0.00
2022-11-15T03:42:57.107Z,0.00
2022-11-15T03:43:57.085Z,0.00
2022-11-15T03:44:58.325Z,0.00
2022-11-15T03:45:57.087Z,0.00
2022-11-15T03:46:57.066Z,0.00
2022-11-15T03:47:57.097Z,0.00
2022-11-15T03:48:57.070Z,0.00
2022-11-15T03:49:57.026Z,0.00
2022-11-15T03:50:57.029Z,0.00
2022-11-15T03:51:57.018Z,0.00
2022-11-15T03:52:57.016Z,0.00
2022-11-15T03:53:56.984Z,0.00
2022-11-15T03:54:56.994Z,0.00
2022-11-15T03:55:56.990Z,0.00
2022-11-15T03:56:56.981Z,0.00
2022-11-15T03:57:56.979Z,0.00
2022-11-15T03:58:56.955Z,0.00
2022-11-15T03:59:56.928Z,0.00
2022-11-15T04:00:56.977Z,0.00
2022-11-15T04:01:56.928Z,0.00
2022-11-15T04:02:56.955Z,0.00
2022-11-15T04:03:56.889Z,0.00
2022-11-15T04:04:56.891Z,0.00
2022-11-15T04:05:56.875Z,0.00
2022-11-15T04:06:56.909Z,0.00
2022-11-15T04:07:56.864Z,0.00
2022-11-15T04:08:56.851Z,0.00
2022-11-15T04:09:56.829Z,0.00
2022-11-15T04:10:56.903Z,0.00
2022-11-15T04:11:56.808Z,0.00
2022-11-15T04:12:56.794Z,0.00
2022-11-15T04:13:56.784Z,0.00
2022-11-15T04:14:56.774Z,0.00
2022-11-15T04:15:56.773Z,0.00
2022-11-15T04:16:56.757Z,0.00
2022-11-15T04:17:56.739Z,0.00
2022-11-15T04:18:56.734Z,0.00
2022-11-15T04:19:56.727Z,0.00
2022-11-15T04:20:56.714Z,0.00
2022-11-15T04:21:56.695Z,0.00
2022-11-15T04:22:56.704Z,0.00
2022-11-15T04:23:56.675Z,0.00
2022-11-15T04:24:56.671Z,0.00
2022-11-15T04:25:56.674Z,0.00
2022-11-15T04:26:56.654Z,0.00
2022-11-15T04:27:56.642Z,0.00
2022-11-15T04:28:56.645Z,0.00
2022-11-15T04:29:56.613Z,0.00
2022-11-15T04:30:56.625Z,0.00
2022-11-15T04:31:56.594Z,0.00
2022-11-15T04:32:56.628Z,0.00
2022-11-15T04:33:56.584Z,0.00
2022-11-15T04:34:56.570Z,0.00
2022-11-15T04:35:56.581Z,0.00
2022-11-15T04:36:56.637Z,0.00
2022-11-15T04:37:56.563Z,0.00
2022-11-15T04:38:56.555Z,0.00
2022-11-15T04:39:56.532Z,0.00
2022-11-15T04:40:56.562Z,0.00
2022-11-15T04:41:56.503Z,0.00
2022-11-15T04:43:03.273Z,0.00
2022-11-15T04:43:57.470Z,0.00
2022-11-15T04:44:56.500Z,0.00
2022-11-15T04:45:56.456Z,0.00
2022-11-15T04:46:56.481Z,0.00
2022-11-15T04:47:56.437Z,0.00
2022-11-15T04:48:58.933Z,0.00
2022-11-15T04:49:56.410Z,0.00
2022-11-15T04:50:56.401Z,0.00
2022-11-15T04:51:56.393Z,0.00
2022-11-15T04:52:56.384Z,0.00
2022-11-15T04:53:56.362Z,0.00
2022-11-15T04:54:56.388Z,0.00
2022-11-15T04:55:56.355Z,0.00
2022-11-15T04:56:56.372Z,0.00
2022-11-15T04:57:56.330Z,0.00
2022-11-15T04:58:56.312Z,0.00
2022-11-15T04:59:56.375Z,0.00
2022-11-15T05:00:56.385Z,0.00
2022-11-15T05:01:56.291Z,0.00
2022-11-15T05:02:56.288Z,0.00
2022-11-15T05:03:56.261Z,0.00
2022-11-15T05:04:56.251Z,0.00
2022-11-15T05:05:56.266Z,0.00
2022-11-15T05:06:56.351Z,0.00
2022-11-15T05:07:56.223Z,0.00
2022-11-15T05:08:56.213Z,0.00
2022-11-15T05:09:56.201Z,0.00
2022-11-15T05:10:56.192Z,0.00
2022-11-15T05:11:56.238Z,0.00
2022-11-15T05:12:56.174Z,0.00
2022-11-15T05:13:56.152Z,0.00
2022-11-15T05:14:56.181Z,0.00
2022-11-15T05:15:56.152Z,0.00
2022-11-15T05:16:56.129Z,0.00
2022-11-15T05:17:56.109Z,0.00
2022-11-15T05:18:56.125Z,0.00
2022-11-15T05:19:56.089Z,0.00
2022-11-15T05:20:56.101Z,0.00
2022-11-15T05:21:56.069Z,0.00
2022-11-15T05:22:56.112Z,0.00
2022-11-15T05:23:56.049Z,0.00
2022-11-15T05:24:56.065Z,0.00
2022-11-15T05:25:56.038Z,0.00
2022-11-15T05:26:56.020Z,0.00
2022-11-15T05:27:56.035Z,0.00
2022-11-15T05:28:56.012Z,0.00
2022-11-15T05:29:55.988Z,0.00
2022-11-15T05:30:56.022Z,0.00
2022-11-15T05:31:55.959Z,0.00
2022-11-15T05:32:55.982Z,0.00
2022-11-15T05:33:55.946Z,0.00
2022-11-15T05:34:55.958Z,0.00
2022-11-15T05:35:55.943Z,0.00
2022-11-15T05:36:56.000Z,0.00
2022-11-15T05:37:55.900Z,0.00
2022-11-15T05:38:55.911Z,0.00
2022-11-15T05:39:55.881Z,0.00
2022-11-15T05:40:55.954Z,0.00
2022-11-15T05:41:55.870Z,0.00
2022-11-15T05:42:55.858Z,0.00
2022-11-15T05:43:55.837Z,0.00
2022-11-15T05:44:55.874Z,0.00
2022-11-15T05:45:55.891Z,0.00
2022-11-15T05:46:55.826Z,0.00
2022-11-15T05:47:55.840Z,0.00
2022-11-15T05:48:55.795Z,0.00
2022-11-15T05:49:55.796Z,0.00
2022-11-15T05:50:55.775Z,0.00
2022-11-15T05:51:55.767Z,0.00
2022-11-15T05:52:57.705Z,0.00
2022-11-15T05:53:56.840Z,0.00
2022-11-15T05:54:55.737Z,0.00
2022-11-15T05:55:55.741Z,0.00
2022-11-15T05:56:55.718Z,0.00
2022-11-15T05:57:55.689Z,0.00
2022-11-15T05:58:59.455Z,0.00
2022-11-15T05:59:55.673Z,0.00
2022-11-15T06:00:55.683Z,0.00
2022-11-15T06:01:55.825Z,0.00
2022-11-15T06:02:55.648Z,0.00
2022-11-15T06:03:55.636Z,0.00
2022-11-15T06:04:55.702Z,0.00
2022-11-15T06:05:55.664Z,0.00
2022-11-15T06:06:55.672Z,1.00
2022-11-15T06:07:55.587Z,0.00
2022-11-15T06:08:55.584Z,0.00
2022-11-15T06:09:55.679Z,0.00
2022-11-15T06:10:55.528Z,1.00
2022-11-15T06:11:55.500Z,1.00
2022-11-15T06:12:55.489Z,1.00
2022-11-15T06:13:55.486Z,1.00
2022-11-15T06:14:55.514Z,0.00
2022-11-15T06:15:55.582Z,2.00
2022-11-15T06:16:55.456Z,1.00
2022-11-15T06:17:55.497Z,0.00
2022-11-15T06:18:55.451Z,2.00
2022-11-15T06:19:55.453Z,2.00
2022-11-15T06:20:55.421Z,1.00
2022-11-15T06:21:55.406Z,1.00
2022-11-15T06:22:55.422Z,2.00
2022-11-15T06:23:55.387Z,1.00
2022-11-15T06:24:55.355Z,2.00
2022-11-15T06:25:55.456Z,5.00
2022-11-15T06:26:55.340Z,2.00
2022-11-15T06:27:55.423Z,2.00
2022-11-15T06:28:55.324Z,3.00
2022-11-15T06:29:55.307Z,3.00
2022-11-15T06:30:55.314Z,4.00
2022-11-15T06:31:55.336Z,5.00
2022-11-15T06:32:55.328Z,6.00
2022-11-15T06:33:55.265Z,7.00
2022-11-15T06:34:55.256Z,8.00
2022-11-15T06:35:55.248Z,9.00
2022-11-15T06:36:55.288Z,9.00
2022-11-15T06:37:55.288Z,9.00
2022-11-15T06:38:55.220Z,11.00
2022-11-15T06:39:55.211Z,11.00
2022-11-15T06:40:55.199Z,14.00
2022-11-15T06:41:56.024Z,24.00
2022-11-15T06:42:55.208Z,29.00
2022-11-15T06:43:55.186Z,31.00
2022-11-15T06:44:55.196Z,35.00
2022-11-15T06:45:55.178Z,41.00
2022-11-15T06:46:55.172Z,49.00
2022-11-15T06:47:55.140Z,56.00
2022-11-15T06:48:55.097Z,70.00
2022-11-15T06:49:55.089Z,84.00
2022-11-15T06:50:55.097Z,71.00
2022-11-15T06:51:55.065Z,71.00
2022-11-15T06:52:55.066Z,123.00
2022-11-15T06:53:55.042Z,152.00
2022-11-15T06:54:55.042Z,145.00
2022-11-15T06:55:55.757Z,116.00
2022-11-15T06:56:55.023Z,98.00
2022-11-15T06:57:55.043Z,105.00
2022-11-15T06:58:55.000Z,123.00
2022-11-15T06:59:54.975Z,149.00
2022-11-15T07:00:55.070Z,176.00
2022-11-15T07:01:55.011Z,173.00
2022-11-15T07:02:54.960Z,187.00
2022-11-15T07:03:54.945Z,181.00
2022-11-15T07:04:54.951Z,193.00
2022-11-15T07:05:55.229Z,204.00
2022-11-15T07:06:55.089Z,222.00
2022-11-15T07:07:54.892Z,197.00
2022-11-15T07:08:54.888Z,239.00
2022-11-15T07:09:54.865Z,214.00
2022-11-15T07:10:54.868Z,199.00
2022-11-15T07:11:54.892Z,216.00
2022-11-15T07:12:54.850Z,240.00
2022-11-15T07:13:54.960Z,324.00
2022-11-15T07:14:54.888Z,381.00
2022-11-15T07:15:54.815Z,402.00
2022-11-15T07:16:54.797Z,368.00
2022-11-15T07:17:54.817Z,377.00
2022-11-15T07:18:54.789Z,357.00
2022-11-15T07:19:54.767Z,383.00
2022-11-15T07:20:54.829Z,417.00
2022-11-15T07:21:54.743Z,616.00
2022-11-15T07:22:54.740Z,660.00
2022-11-15T07:23:54.727Z,713.00
2022-11-15T07:24:54.717Z,767.00
2022-11-15T07:25:54.773Z,819.00
2022-11-15T07:26:54.733Z,977.00
2022-11-15T07:27:54.686Z,913.00
2022-11-15T07:28:54.668Z,856.00
2022-11-15T07:29:54.668Z,904.00
2022-11-15T07:30:54.681Z,1013.00
2022-11-15T07:31:54.640Z,989.00
2022-11-15T07:32:54.620Z,981.00
2022-11-15T07:33:54.600Z,978.00
2022-11-15T07:34:54.608Z,1071.00
2022-11-15T07:35:54.598Z,1105.00
2022-11-15T07:36:54.578Z,1181.00
2022-11-15T07:37:54.558Z,1028.00
2022-11-15T07:38:54.559Z,983.00
2022-11-15T07:39:54.588Z,985.00
2022-11-15T07:40:54.530Z,1019.00
2022-11-15T07:41:54.617Z,845.00
2022-11-15T07:42:54.538Z,992.00
2022-11-15T07:43:54.510Z,936.00
2022-11-15T07:44:54.512Z,926.00
2022-11-15T07:45:58.803Z,925.00
2022-11-15T07:46:55.481Z,905.00
2022-11-15T07:47:54.474Z,1094.00
2022-11-15T07:48:54.528Z,1105.00
2022-11-15T07:49:54.554Z,1048.00
2022-11-15T07:50:54.436Z,1170.00
2022-11-15T07:51:54.425Z,1149.00
2022-11-15T07:52:54.397Z,1130.00
2022-11-15T07:53:54.413Z,1131.00
2022-11-15T07:54:54.388Z,1102.00
2022-11-15T07:55:54.377Z,1061.00
2022-11-15T07:56:54.386Z,927.00
2022-11-15T07:57:54.361Z,832.00
2022-11-15T07:58:54.344Z,1152.00
2022-11-15T07:59:54.345Z,1203.00
2022-11-15T08:00:54.494Z,1016.00
2022-11-15T08:01:54.502Z,1307.00
2022-11-15T08:02:54.425Z,1310.00
2022-11-15T08:03:54.300Z,1614.00
2022-11-15T08:04:54.269Z,2187.00
2022-11-15T08:05:54.345Z,2076.00
2022-11-15T08:06:54.507Z,1910.00
2022-11-15T08:07:54.258Z,2118.00
2022-11-15T08:08:54.235Z,2403.00
2022-11-15T08:09:54.221Z,2656.00
2022-11-15T08:10:54.208Z,2368.00
2022-11-15T08:11:54.378Z,3042.00
2022-11-15T08:12:54.362Z,3305.00
2022-11-15T08:13:54.276Z,2797.00
2022-11-15T08:14:54.247Z,3181.00
2022-11-15T08:15:57.775Z,3326.00
2022-11-15T08:16:54.161Z,3455.00
2022-11-15T08:17:54.158Z,3180.00
2022-11-15T08:18:54.126Z,3313.00
2022-11-15T08:19:54.117Z,3193.00
2022-11-15T08:20:54.104Z,3082.00
2022-11-15T08:21:54.107Z,3267.00
2022-11-15T08:22:54.112Z,3068.00
2022-11-15T08:23:54.103Z,3303.00
2022-11-15T08:24:54.083Z,2984.00
2022-11-15T08:25:54.061Z,2968.00
2022-11-15T08:26:54.133Z,3065.00
2022-11-15T08:27:54.055Z,3043.00
2022-11-15T08:28:54.033Z,3525.00
2022-11-15T08:29:58.346Z,3466.00
2022-11-15T08:30:55.299Z,3426.00
2022-11-15T08:31:54.677Z,3482.00
2022-11-15T08:32:53.987Z,3555.00
2022-11-15T08:33:53.984Z,3586.00
2022-11-15T08:34:53.956Z,3630.00
2022-11-15T08:35:54.130Z,3662.00
2022-11-15T08:36:53.963Z,4181.00
2022-11-15T08:37:53.930Z,3994.00
2022-11-15T08:38:53.912Z,3945.00
2022-11-15T08:39:53.932Z,4026.00
2022-11-15T08:40:53.930Z,4219.00
2022-11-15T08:41:53.899Z,4757.00
2022-11-15T08:42:53.877Z,4032.00
2022-11-15T08:43:53.961Z,4763.00
2022-11-15T08:44:53.924Z,4363.00
2022-11-15T08:45:53.851Z,4363.00
2022-11-15T08:46:53.829Z,4557.00
2022-11-15T08:47:54.679Z,4653.00
2022-11-15T08:48:53.806Z,4627.00
2022-11-15T08:49:53.799Z,4658.00
2022-11-15T08:50:53.877Z,4815.00
2022-11-15T08:51:53.769Z,4991.00
2022-11-15T08:52:53.763Z,5135.00
2022-11-15T08:53:53.747Z,5197.00
2022-11-15T08:54:53.736Z,5240.00
2022-11-15T08:55:53.728Z,5388.00
2022-11-15T08:56:53.745Z,5422.00
2022-11-15T08:57:53.706Z,5485.00
2022-11-15T08:58:53.715Z,5565.00
2022-11-15T08:59:53.691Z,5695.00
2022-11-15T09:00:53.695Z,5755.00
2022-11-15T09:01:53.723Z,5799.00
2022-11-15T09:02:53.638Z,5913.00
2022-11-15T09:03:53.854Z,5932.00
2022-11-15T09:04:53.629Z,5862.00
2022-11-15T09:05:53.642Z,5811.00
2022-11-15T09:06:53.733Z,5858.00
2022-11-15T09:07:53.624Z,5875.00
2022-11-15T09:08:53.842Z,5842.00
2022-11-15T09:09:53.605Z,5825.00
2022-11-15T09:10:53.647Z,5822.00
2022-11-15T09:11:55.801Z,5873.00
2022-11-15T09:12:54.552Z,5947.00
2022-11-15T09:13:53.534Z,5966.00
2022-11-15T09:14:53.607Z,6039.00
2022-11-15T09:15:53.513Z,6005.00
2022-11-15T09:16:53.509Z,5966.00
2022-11-15T09:17:53.497Z,5966.00
2022-11-15T09:18:53.511Z,6009.00
2022-11-15T09:19:53.458Z,6088.00
2022-11-15T09:20:53.518Z,6034.00
2022-11-15T09:21:53.462Z,6004.00
2022-11-15T09:22:53.427Z,6022.00
2022-11-15T09:23:53.479Z,6018.00
2022-11-15T09:24:53.451Z,6000.00
2022-11-15T09:25:53.410Z,5989.00
2022-11-15T09:26:53.388Z,5989.00
2022-11-15T09:27:53.478Z,6207.00
2022-11-15T09:28:53.432Z,6218.00
2022-11-15T09:29:53.358Z,6211.00
2022-11-15T09:30:53.360Z,6161.00
2022-11-15T09:31:53.387Z,6145.00
2022-11-15T09:32:53.326Z,6237.00
2022-11-15T09:33:53.378Z,6304.00
2022-11-15T09:34:53.312Z,6408.00
2022-11-15T09:35:53.311Z,6519.00
2022-11-15T09:36:53.319Z,6550.00
2022-11-15T09:37:56.334Z,6516.00
2022-11-15T09:38:53.271Z,6572.00
2022-11-15T09:39:53.248Z,6575.00
2022-11-15T09:40:53.242Z,6515.00
2022-11-15T09:41:53.238Z,6456.00
2022-11-15T09:42:53.237Z,6431.00
2022-11-15T09:43:53.216Z,6379.00
2022-11-15T09:44:53.223Z,6374.00
2022-11-15T09:45:53.230Z,6258.00
2022-11-15T09:46:53.176Z,6644.00
2022-11-15T09:47:53.157Z,6498.00
2022-11-15T09:48:53.150Z,6536.00
2022-11-15T09:49:56.710Z,6283.00
2022-11-15T09:50:53.148Z,6110.00
2022-11-15T09:51:53.233Z,6900.00
2022-11-15T09:52:53.178Z,7958.00
2022-11-15T09:54:55.627Z,7105.00
2022-11-15T09:55:53.126Z,6776.00
2022-11-15T09:56:53.086Z,6940.00
2022-11-15T09:57:53.085Z,6435.00
2022-11-15T09:58:53.048Z,6281.00
2022-11-15T09:59:53.042Z,6308.00
2022-11-15T10:00:53.070Z,6163.00
2022-11-15T10:01:53.049Z,6047.00
2022-11-15T10:02:52.998Z,6112.00
2022-11-15T10:03:53.070Z,6443.00
2022-11-15T10:04:52.977Z,6494.00
2022-11-15T10:05:53.009Z,6421.00
2022-11-15T10:06:53.065Z,6386.00
2022-11-15T10:07:52.987Z,6350.00
2022-11-15T10:08:52.937Z,6348.00
2022-11-15T10:09:52.999Z,6369.00
2022-11-15T10:11:09.793Z,6386.00
2022-11-15T10:11:53.940Z,6393.00
2022-11-15T10:12:52.974Z,6389.00
2022-11-15T10:13:52.918Z,6412.00
2022-11-15T10:14:54.523Z,6312.00
2022-11-15T10:15:52.899Z,6542.00
2022-11-15T10:16:52.902Z,6315.00
2022-11-15T10:17:52.915Z,6228.00
2022-11-15T10:18:52.905Z,6157.00
2022-11-15T10:19:52.866Z,5946.00
2022-11-15T10:20:52.908Z,5646.00
2022-11-15T10:21:52.817Z,6325.00
2022-11-15T10:22:52.809Z,6447.00
2022-11-15T10:23:52.792Z,6722.00
2022-11-15T10:24:52.772Z,6660.00
2022-11-15T10:25:52.813Z,6599.00
2022-11-15T10:26:52.760Z,6691.00
2022-11-15T10:27:52.743Z,6515.00
2022-11-15T10:28:52.733Z,5934.00
2022-11-15T10:29:52.794Z,5469.00
2022-11-15T10:30:52.745Z,5999.00
2022-11-15T10:31:52.711Z,5914.00
2022-11-15T10:32:52.772Z,5950.00
2022-11-15T10:33:52.688Z,5895.00
2022-11-15T10:34:52.693Z,5894.00
2022-11-15T10:35:52.663Z,6029.00
2022-11-15T10:36:52.668Z,6047.00
2022-11-15T10:37:52.631Z,6185.00
2022-11-15T10:38:52.616Z,6494.00
2022-11-15T10:39:52.622Z,6318.00
2022-11-15T10:40:52.620Z,6246.00
2022-11-15T10:41:52.626Z,6619.00
2022-11-15T10:42:52.580Z,6458.00
2022-11-15T10:43:52.657Z,6741.00
2022-11-15T10:44:52.553Z,6709.00
2022-11-15T10:45:52.723Z,6720.00
2022-11-15T10:46:52.615Z,6455.00
2022-11-15T10:47:52.523Z,6103.00
2022-11-15T10:48:52.512Z,5906.00
2022-11-15T10:49:52.534Z,6058.00
2022-11-15T10:50:52.487Z,6181.00
2022-11-15T10:51:52.527Z,6150.00
2022-11-15T10:52:52.469Z,6058.00
2022-11-15T10:53:52.499Z,5676.00
2022-11-15T10:54:52.468Z,6697.00
2022-11-15T10:55:52.456Z,6208.00
2022-11-15T10:56:52.431Z,6249.00
2022-11-15T10:57:52.588Z,6203.00
2022-11-15T10:58:52.430Z,6559.00
2022-11-15T10:59:52.420Z,5642.00
2022-11-15T11:00:52.390Z,7151.00
2022-11-15T11:01:52.400Z,6107.00
2022-11-15T11:02:52.450Z,6029.00
2022-11-15T11:03:52.481Z,6103.00
2022-11-15T11:04:52.371Z,6219.00
2022-11-15T11:05:52.355Z,6414.00
2022-11-15T11:06:52.382Z,6407.00
2022-11-15T11:07:52.309Z,6396.00
2022-11-15T11:08:52.325Z,6406.00
2022-11-15T11:09:52.279Z,6262.00
2022-11-15T11:10:56.020Z,5866.00
2022-11-15T11:11:53.269Z,5498.00
2022-11-15T11:12:52.250Z,5416.00
2022-11-15T11:13:52.246Z,5468.00
2022-11-15T11:14:52.235Z,5548.00
2022-11-15T11:15:52.229Z,5586.00
2022-11-15T11:16:52.235Z,5498.00
2022-11-15T11:17:53.650Z,5457.00
2022-11-15T11:18:52.208Z,5435.00
2022-11-15T11:19:52.200Z,5365.00
2022-11-15T11:20:52.161Z,5383.00
2022-11-15T11:21:52.391Z,5583.00
2022-11-15T11:22:52.142Z,5821.00
2022-11-15T11:23:52.135Z,5954.00
2022-11-15T11:24:52.231Z,6009.00
2022-11-15T11:25:52.435Z,5980.00
2022-11-15T11:26:56.838Z,6012.00
2022-11-15T11:27:53.155Z,6155.00
2022-11-15T11:28:53.089Z,6296.00
2022-11-15T11:29:52.068Z,6254.00
2022-11-15T11:30:52.290Z,6181.00
2022-11-15T11:31:52.058Z,6109.00
2022-11-15T11:32:55.253Z,6117.00
2022-11-15T11:33:52.034Z,6179.00
2022-11-15T11:34:52.067Z,6172.00
2022-11-15T11:35:52.235Z,6072.00
2022-11-15T11:36:52.957Z,6111.00
2022-11-15T11:37:52.034Z,6245.00
2022-11-15T11:38:51.990Z,6261.00
2022-11-15T11:39:51.970Z,6258.00
2022-11-15T11:40:52.151Z,6263.00
2022-11-15T11:41:52.085Z,6238.00
2022-11-15T11:42:51.929Z,6193.00
2022-11-15T11:43:52.052Z,6159.00
2022-11-15T11:44:52.029Z,6162.00
2022-11-15T11:45:51.926Z,6154.00
2022-11-15T11:46:52.000Z,6094.00
2022-11-15T11:47:51.906Z,6150.00
2022-11-15T11:48:51.881Z,6257.00
2022-11-15T11:49:52.005Z,6253.00
2022-11-15T11:50:51.867Z,6198.00
2022-11-15T11:51:51.891Z,6234.00
2022-11-15T11:52:51.941Z,6345.00
2022-11-15T11:53:51.884Z,6414.00
2022-11-15T11:54:51.798Z,6228.00
2022-11-15T11:55:51.788Z,6128.00
2022-11-15T11:56:51.852Z,6328.00
2022-11-15T11:57:51.815Z,5918.00
2022-11-15T11:58:51.801Z,5538.00
2022-11-15T11:59:51.744Z,5692.00
2022-11-15T12:00:51.860Z,6124.00
2022-11-15T12:01:51.875Z,6091.00
2022-11-15T12:02:52.020Z,6121.00
2022-11-15T12:03:51.720Z,6171.00
2022-11-15T12:04:51.730Z,6236.00
2022-11-15T12:05:51.931Z,6030.00
2022-11-15T12:06:52.567Z,5617.00
2022-11-15T12:07:51.669Z,5499.00
2022-11-15T12:08:51.651Z,5572.00
2022-11-15T12:09:51.673Z,5535.00
2022-11-15T12:10:51.671Z,5455.00
2022-11-15T12:11:51.613Z,5454.00
2022-11-15T12:12:51.701Z,5472.00
2022-11-15T12:13:51.653Z,5447.00
2022-11-15T12:14:51.598Z,5357.00
2022-11-15T12:15:51.583Z,5257.00
2022-11-15T12:16:51.622Z,5224.00
2022-11-15T12:17:51.943Z,5253.00
2022-11-15T12:18:51.668Z,5291.00
2022-11-15T12:19:51.580Z,5333.00
2022-11-15T12:20:51.545Z,5399.00
2022-11-15T12:21:51.558Z,5417.00
2022-11-15T12:22:51.575Z,5432.00
2022-11-15T12:23:51.494Z,5371.00
2022-11-15T12:24:51.522Z,5302.00
2022-11-15T12:25:51.475Z,5355.00
2022-11-15T12:26:51.493Z,5152.00
2022-11-15T12:27:51.481Z,4999.00
2022-11-15T12:29:06.249Z,5192.00
2022-11-15T12:29:52.434Z,5233.00
2022-11-15T12:30:51.506Z,5191.00
2022-11-15T12:31:51.478Z,5182.00
2022-11-15T12:32:51.557Z,5195.00
2022-11-15T12:33:51.462Z,4980.00
2022-11-15T12:34:51.453Z,4856.00
2022-11-15T12:35:51.446Z,4686.00
2022-11-15T12:36:51.692Z,4704.00
2022-11-15T12:37:51.466Z,4882.00
2022-11-15T12:38:51.334Z,5019.00
2022-11-15T12:39:51.404Z,4959.00
2022-11-15T12:40:51.355Z,4902.00
2022-11-15T12:41:51.619Z,4977.00
2022-11-15T12:42:51.509Z,5049.00
2022-11-15T12:43:51.411Z,5123.00
2022-11-15T12:44:51.339Z,5166.00
2022-11-15T12:45:51.255Z,5188.00